createdAt,value
2023-03-26T00:02:06.264Z,7.2
2023-03-26T00:12:08.811Z,7.3
2023-03-26T00:52:16.791Z,7.5
2023-03-26T01:02:18.859Z,7.3
2023-03-26T01:32:24.885Z,7.5
2023-03-26T01:42:27.061Z,7.6
2023-03-26T01:52:29.200Z,7.6
2023-03-26T02:02:30.982Z,7.6
2023-03-26T02:12:33.195Z,7.5
2023-03-26T02:22:35.030Z,7.4
2023-03-26T02:32:37.356Z,7.4
2023-03-26T02:42:39.892Z,7.4
2023-03-26T02:52:42.501Z,7.3
2023-03-26T03:02:44.752Z,7.1
2023-03-26T03:12:46.676Z,7
2023-03-26T03:22:48.834Z,7
2023-03-26T03:32:51.091Z,7.1
2023-03-26T03:42:53.653Z,7.1
2023-03-26T03:52:56.110Z,6.9
2023-03-26T04:02:58.559Z,6.6
2023-03-26T04:13:00.871Z,6.4
2023-03-26T04:23:03.151Z,6.4
2023-03-26T04:33:05.071Z,6.5
2023-03-26T04:43:07.200Z,6.6
2023-03-26T04:53:09.173Z,6.7
2023-03-26T05:23:15.836Z,6.8
2023-03-26T05:33:18.274Z,6.9
2023-03-26T05:43:20.772Z,6.8
2023-03-26T05:53:23.347Z,6.8
2023-03-26T06:03:25.900Z,6.9
2023-03-26T06:13:27.888Z,7
2023-03-26T06:23:30.389Z,7.1
2023-03-26T06:33:32.745Z,7.1
2023-03-26T06:43:34.715Z,7.1
2023-03-26T06:53:37.100Z,7.1
2023-03-26T07:03:39.125Z,7.2
2023-03-26T07:13:41.189Z,7.3
2023-03-26T07:23:42.934Z,7.5
2023-03-26T07:33:45.499Z,7.6
2023-03-26T07:43:47.309Z,7.6
2023-03-26T07:53:49.698Z,7.6
2023-03-26T08:03:51.604Z,7.4
2023-03-26T08:13:53.827Z,7.6
2023-03-26T08:23:55.875Z,7.5
2023-03-26T08:44:00.392Z,7.7
2023-03-26T09:04:04.390Z,7.7
2023-03-26T09:24:08.459Z,7.7
2023-03-26T09:44:13.002Z,7.6
2023-03-26T09:54:15.301Z,7.7
2023-03-26T10:14:19.899Z,7.9
2023-03-26T10:24:22.014Z,7.7
2023-03-26T10:34:28.331Z,7.6
2023-03-26T10:44:26.463Z,7.5
2023-03-26T11:04:30.778Z,7.8
2023-03-26T11:24:35.475Z,7.9
2023-03-26T11:34:38.108Z,8.1
2023-03-26T11:44:40.052Z,7.9
2023-03-26T11:54:41.857Z,8
2023-03-26T12:04:43.923Z,8.1
2023-03-26T12:14:46.281Z,7.8
2023-03-26T12:24:48.476Z,8
2023-03-26T12:34:51.055Z,8.4
2023-03-26T13:25:01.742Z,8.2
2023-03-26T13:35:03.442Z,8.6
2023-03-26T13:45:05.946Z,8.3
2023-03-26T17:25:50.409Z,6.8
2023-03-26T17:46:02.718Z,6.5
2023-03-26T18:06:05.156Z,6.3
2023-03-26T18:26:10.255Z,6.1
2023-03-26T18:46:14.543Z,6
2023-03-26T18:56:16.629Z,6
2023-03-26T20:36:38.387Z,4.6
2023-03-26T20:56:42.824Z,4
2023-03-26T21:16:47.194Z,3.7
2023-03-26T21:36:51.537Z,3.4
2023-03-26T21:56:55.905Z,3.1
2023-03-26T22:06:58.237Z,2.8
2023-03-26T22:17:00.013Z,2.6
2023-03-26T22:37:04.244Z,2.4
2023-03-26T22:47:06.805Z,2.5
2023-03-26T23:07:11.649Z,2.6
2023-03-26T23:17:14.270Z,2.6
2023-03-26T23:27:16.769Z,2.5
2023-03-26T23:37:18.472Z,2.3
2023-03-26T23:47:20.296Z,2.1
2023-03-26T23:57:22.018Z,1.8
